Time;durP1;ratioP1;P1;durP2;ratioP2;P2;SDS_P1;SDS_P2;PMS_P1;PMS_P2;Temp;Humidity;BMP_temperature;BMP_pressure;BME280_temperature;BME280_humidity;BME280_pressure;Samples;Min_cycle;Max_cycle;Signal;HPM_P1;HPM_P2
2022/07/20 00:01:35;;;;;;;0.20;0.20;;;23.80;76.40;;;;;;5062198;28;20040;-86
2022/07/20 00:04:00;;;;;;;0.20;0.20;;;23.80;76.60;;;;;;5068793;28;20079;-85
2022/07/20 00:06:26;;;;;;;0.20;0.20;;;23.80;76.40;;;;;;5075459;28;20060;-85
2022/07/20 00:11:36;;;;;;;0.20;0.20;;;23.80;76.70;;;;;;5066679;28;20045;-85
2022/07/20 00:14:03;;;;;;;0.30;0.30;;;23.70;76.50;;;;;;5058917;28;20048;-86
2022/07/20 00:16:32;;;;;;;0.20;0.20;;;23.70;76.40;;;;;;5066869;28;20089;-85
2022/07/20 00:18:58;;;;;;;0.20;0.20;;;23.70;76.60;;;;;;5061918;28;20172;-86
2022/07/20 00:21:26;;;;;;;0.30;0.30;;;23.70;75.90;;;;;;5068566;28;20602;-87
2022/07/20 00:23:52;;;;;;;0.20;0.20;;;23.70;75.20;;;;;;5061431;28;20052;-86
2022/07/20 00:26:18;;;;;;;0.20;0.20;;;23.70;75.60;;;;;;5055085;28;20041;-86
2022/07/20 00:28:43;;;;;;;0.20;0.20;;;23.70;75.50;;;;;;5082451;28;20036;-86
2022/07/20 00:31:09;;;;;;;0.20;0.20;;;23.60;75.20;;;;;;5067840;28;20033;-86
2022/07/20 00:33:35;;;;;;;0.20;0.20;;;23.70;75.40;;;;;;5062309;28;20040;-86
2022/07/20 00:36:04;;;;;;;0.20;0.20;;;23.70;74.80;;;;;;5064352;28;20060;-86
2022/07/20 00:38:30;;;;;;;0.20;0.20;;;23.60;74.80;;;;;;5075887;28;20502;-85
2022/07/20 00:40:59;;;;;;;0.20;0.20;;;23.60;74.70;;;;;;5065547;28;20488;-86
2022/07/20 00:43:24;;;;;;;0.20;0.20;;;23.60;74.50;;;;;;5077155;28;20054;-86
2022/07/20 00:45:50;;;;;;;0.20;0.20;;;23.60;74.30;;;;;;5063771;28;20037;-86
2022/07/20 00:48:16;;;;;;;0.20;0.20;;;23.60;74.10;;;;;;5066469;28;20048;-86
2022/07/20 00:50:42;;;;;;;0.20;0.20;;;23.60;74.40;;;;;;5070929;28;20086;-86
2022/07/20 00:53:08;;;;;;;0.20;0.20;;;23.60;74.40;;;;;;5088707;28;20132;-85
2022/07/20 00:55:34;;;;;;;0.20;0.20;;;23.50;74.20;;;;;;5075953;28;20048;-86
2022/07/20 00:58:00;;;;;;;0.22;0.22;;;23.60;74.20;;;;;;5061233;28;20061;-86
2022/07/20 01:00:25;;;;;;;0.20;0.20;;;23.60;74.30;;;;;;5090946;28;20040;-86
2022/07/20 01:02:51;;;;;;;0.20;0.20;;;23.60;74.10;;;;;;5080604;28;20045;-86
2022/07/20 01:05:17;;;;;;;0.20;0.20;;;23.60;74.10;;;;;;5066356;28;20441;-86
2022/07/20 01:07:47;;;;;;;0.30;0.30;;;23.60;74.10;;;;;;5069263;28;20048;-85
2022/07/20 01:10:15;;;;;;;0.20;0.20;;;23.60;73.90;;;;;;5082402;28;20108;-84
2022/07/20 01:12:47;;;;;;;0.20;0.20;;;23.50;73.70;;;;;;5069413;28;20063;-85
2022/07/20 01:15:13;;;;;;;0.20;0.20;;;23.50;73.90;;;;;;5065011;28;20106;-85
2022/07/20 01:17:38;;;;;;;0.20;0.20;;;23.50;73.60;;;;;;5063396;28;20048;-86
2022/07/20 01:20:12;;;;;;;0.20;0.20;;;23.50;74.00;;;;;;5067359;28;20044;-85
2022/07/20 01:22:38;;;;;;;0.25;0.25;;;23.50;74.30;;;;;;5055631;28;20041;-85
2022/07/20 01:25:04;;;;;;;0.20;0.20;;;23.50;74.70;;;;;;5057655;28;20049;-85
2022/07/20 01:27:32;;;;;;;0.20;0.20;;;23.40;74.80;;;;;;5084751;28;20040;-86
2022/07/20 01:29:58;;;;;;;0.30;0.30;;;23.40;75.10;;;;;;5062414;28;20043;-86
2022/07/20 01:32:24;;;;;;;0.20;0.20;;;23.40;75.50;;;;;;5095228;28;20044;-86
2022/07/20 01:34:49;;;;;;;0.20;0.20;;;23.40;75.90;;;;;;5071359;28;20041;-85
2022/07/20 01:37:15;;;;;;;0.20;0.20;;;23.40;76.20;;;;;;5064404;28;20049;-86
2022/07/20 01:39:41;;;;;;;0.20;0.20;;;23.30;76.50;;;;;;5086826;28;20492;-86
2022/07/20 01:42:06;;;;;;;0.20;0.20;;;23.30;76.60;;;;;;5080769;28;20515;-86
2022/07/20 01:44:32;;;;;;;0.20;0.20;;;23.20;76.90;;;;;;5069972;28;20036;-86
2022/07/20 01:46:57;;;;;;;0.20;0.20;;;23.20;76.90;;;;;;5056149;28;20128;-86
2022/07/20 01:49:23;;;;;;;0.20;0.20;;;23.10;76.50;;;;;;5075847;28;20044;-87
2022/07/20 01:51:49;;;;;;;0.20;0.20;;;23.10;76.90;;;;;;5080970;28;20058;-86
2022/07/20 01:54:14;;;;;;;0.20;0.20;;;23.10;77.10;;;;;;5074842;28;20049;-86
2022/07/20 01:56:41;;;;;;;0.20;0.20;;;23.00;76.80;;;;;;5081488;28;20059;-85
2022/07/20 01:59:07;;;;;;;0.20;0.20;;;23.00;76.30;;;;;;5051938;28;20050;-86
2022/07/20 02:01:33;;;;;;;0.20;0.20;;;22.90;76.20;;;;;;5073530;28;20043;-86
2022/07/20 02:03:59;;;;;;;0.20;0.20;;;22.90;76.20;;;;;;5075485;28;20037;-85
2022/07/20 02:06:24;;;;;;;0.15;0.15;;;22.80;76.00;;;;;;5055712;28;20044;-86
2022/07/20 02:08:50;;;;;;;0.20;0.20;;;22.80;76.10;;;;;;5071723;28;20401;-86
2022/07/20 02:11:16;;;;;;;0.20;0.20;;;22.80;76.30;;;;;;5065237;28;20086;-86
2022/07/20 02:13:47;;;;;;;0.20;0.20;;;22.70;76.40;;;;;;5057916;28;20102;-85
2022/07/20 02:16:16;;;;;;;0.20;0.20;;;22.70;76.60;;;;;;5070265;28;20040;-86
2022/07/20 02:18:47;;;;;;;0.20;0.20;;;22.60;76.60;;;;;;5064606;28;20071;-85
2022/07/20 02:21:16;;;;;;;0.20;0.20;;;22.60;77.10;;;;;;5077006;28;20029;-86
2022/07/20 02:23:43;;;;;;;0.20;0.20;;;22.60;77.10;;;;;;5065670;28;20044;-85
2022/07/20 02:26:10;;;;;;;0.20;0.20;;;22.60;77.30;;;;;;5072586;28;20052;-86
2022/07/20 02:28:35;;;;;;;0.20;0.20;;;22.50;77.30;;;;;;5080801;28;20068;-86
2022/07/20 02:31:02;;;;;;;0.20;0.20;;;22.50;77.30;;;;;;5067062;28;20500;-86
2022/07/20 02:33:27;;;;;;;0.20;0.20;;;22.40;77.30;;;;;;5074278;28;20377;-86
2022/07/20 02:35:53;;;;;;;0.20;0.20;;;22.40;77.50;;;;;;5068070;28;20040;-85
2022/07/20 02:38:28;;;;;;;0.20;0.20;;;22.40;77.70;;;;;;5060082;28;20044;-85
2022/07/20 02:40:54;;;;;;;0.15;0.15;;;22.30;77.80;;;;;;5072984;28;20567;-86
2022/07/20 02:43:23;;;;;;;0.20;0.20;;;22.30;77.80;;;;;;5069128;28;20127;-85
2022/07/20 02:45:49;;;;;;;0.10;0.10;;;22.30;77.70;;;;;;5057701;28;20633;-87
2022/07/20 02:48:14;;;;;;;0.20;0.20;;;22.30;77.60;;;;;;5058056;28;20045;-86
2022/07/20 02:50:41;;;;;;;0.20;0.20;;;22.20;77.80;;;;;;5068791;28;20037;-86
2022/07/20 02:53:09;;;;;;;0.20;0.20;;;22.20;77.70;;;;;;5083622;28;20033;-86
2022/07/20 02:55:36;;;;;;;0.20;0.20;;;22.20;78.10;;;;;;5067720;28;20052;-85
2022/07/20 02:58:01;;;;;;;0.20;0.20;;;22.10;78.10;;;;;;5074925;28;20045;-85
2022/07/20 03:00:27;;;;;;;0.20;0.20;;;22.10;78.20;;;;;;5068769;28;20748;-86
2022/07/20 03:02:53;;;;;;;0.20;0.20;;;22.10;78.30;;;;;;5078575;28;20392;-86
2022/07/20 03:05:19;;;;;;;0.20;0.20;;;22.00;78.60;;;;;;5068183;28;20048;-86
2022/07/20 03:07:44;;;;;;;0.15;0.15;;;22.00;78.90;;;;;;5081072;28;20518;-87
2022/07/20 03:10:10;;;;;;;0.20;0.20;;;22.00;78.70;;;;;;5064141;28;20037;-86
2022/07/20 03:12:36;;;;;;;0.20;0.20;;;22.00;78.70;;;;;;5075342;28;20078;-85
2022/07/20 03:15:03;;;;;;;0.17;0.17;;;21.90;78.80;;;;;;5084021;28;20075;-85
2022/07/20 03:17:29;;;;;;;0.20;0.20;;;21.90;78.80;;;;;;5080686;28;20044;-86
2022/07/20 03:19:54;;;;;;;0.20;0.20;;;21.90;79.10;;;;;;5064871;28;20590;-86
2022/07/20 03:22:20;;;;;;;0.20;0.20;;;21.90;79.30;;;;;;5064483;28;20037;-84
2022/07/20 03:24:46;;;;;;;0.20;0.20;;;21.80;79.30;;;;;;5050145;28;20408;-85
2022/07/20 03:27:11;;;;;;;0.20;0.20;;;21.80;79.40;;;;;;5070007;28;20112;-86
2022/07/20 03:29:38;;;;;;;0.20;0.20;;;21.80;79.70;;;;;;5057105;28;20055;-85
2022/07/20 03:32:04;;;;;;;0.20;0.20;;;21.60;79.50;;;;;;5068062;28;20131;-85
2022/07/20 03:34:30;;;;;;;0.20;0.20;;;21.70;79.70;;;;;;5070618;28;20115;-85
2022/07/20 03:36:55;;;;;;;0.20;0.20;;;21.70;80.00;;;;;;5066148;28;20040;-85
2022/07/20 03:39:21;;;;;;;0.20;0.20;;;21.60;79.90;;;;;;5056490;28;20127;-85
2022/07/20 03:41:49;;;;;;;0.20;0.20;;;21.60;80.10;;;;;;5071851;28;20032;-86
2022/07/20 03:44:18;;;;;;;0.20;0.20;;;21.60;80.10;;;;;;5071071;28;20049;-85
2022/07/20 03:46:44;;;;;;;0.20;0.20;;;21.60;80.20;;;;;;5071818;28;20047;-85
2022/07/20 03:49:09;;;;;;;0.20;0.20;;;21.60;80.50;;;;;;5063352;28;20090;-85
2022/07/20 03:51:38;;;;;;;0.20;0.20;;;21.50;80.50;;;;;;5067760;28;20049;-85
2022/07/20 03:54:04;;;;;;;0.20;0.20;;;21.60;80.60;;;;;;5065083;28;20064;-85
2022/07/20 03:56:30;;;;;;;0.20;0.20;;;21.50;80.90;;;;;;5080855;28;20053;-87
2022/07/20 03:58:56;;;;;;;0.20;0.20;;;21.50;81.00;;;;;;5076698;28;20087;-85
2022/07/20 04:01:21;;;;;;;0.20;0.20;;;21.50;81.20;;;;;;5062756;28;20456;-86
2022/07/20 04:03:47;;;;;;;0.10;0.10;;;21.50;81.40;;;;;;5065324;28;20050;-86
2022/07/20 04:06:12;;;;;;;0.13;0.13;;;21.50;81.50;;;;;;5059298;28;20721;-85
2022/07/20 04:08:38;;;;;;;0.20;0.20;;;21.50;81.60;;;;;;5063149;28;20083;-86
2022/07/20 04:11:03;;;;;;;0.17;0.17;;;21.40;81.70;;;;;;5061266;28;20048;-84
2022/07/20 04:13:29;;;;;;;0.20;0.20;;;21.40;81.80;;;;;;5060488;28;20468;-86
2022/07/20 04:15:57;;;;;;;0.20;0.20;;;21.50;82.00;;;;;;5058435;28;20080;-85
2022/07/20 04:18:26;;;;;;;0.20;0.20;;;21.40;81.90;;;;;;5064334;28;20091;-84
2022/07/20 04:20:52;;;;;;;0.10;0.10;;;21.50;82.20;;;;;;5063113;28;20062;-85
2022/07/20 04:23:17;;;;;;;0.20;0.20;;;21.50;82.20;;;;;;5076316;28;20040;-86
2022/07/20 04:25:43;;;;;;;0.20;0.20;;;21.40;82.20;;;;;;5066186;28;21566;-85
2022/07/20 04:28:08;;;;;;;0.20;0.20;;;21.40;82.30;;;;;;5076451;28;20041;-85
2022/07/20 04:30:35;;;;;;;0.17;0.17;;;21.50;82.50;;;;;;5061278;28;20513;-85
2022/07/20 04:33:01;;;;;;;0.20;0.20;;;21.50;82.60;;;;;;5074814;28;20048;-85
2022/07/20 04:35:26;;;;;;;0.20;0.20;;;21.50;82.70;;;;;;5065490;28;20033;-85
2022/07/20 04:37:52;;;;;;;0.20;0.20;;;21.50;82.70;;;;;;5077522;28;20075;-84
2022/07/20 04:40:18;;;;;;;0.20;0.20;;;21.50;82.70;;;;;;5093160;28;20131;-84
2022/07/20 04:42:43;;;;;;;0.20;0.20;;;21.50;82.10;;;;;;5067982;28;20045;-84
2022/07/20 04:45:10;;;;;;;0.20;0.20;;;21.60;82.60;;;;;;5056332;28;20507;-84
2022/07/20 04:47:36;;;;;;;0.10;0.10;;;21.60;82.70;;;;;;5085400;28;20120;-84
2022/07/20 04:50:02;;;;;;;0.20;0.20;;;21.60;82.80;;;;;;5067503;28;20048;-88
2022/07/20 04:52:28;;;;;;;0.20;0.20;;;21.60;82.70;;;;;;5068321;28;20049;-85
2022/07/20 04:54:53;;;;;;;0.20;0.20;;;21.60;82.70;;;;;;5074790;28;20047;-86
2022/07/20 04:57:22;;;;;;;0.20;0.20;;;21.70;82.80;;;;;;5069128;28;20137;-86
2022/07/20 04:59:47;;;;;;;0.20;0.20;;;21.60;82.90;;;;;;5074074;28;20059;-84
2022/07/20 05:02:13;;;;;;;0.20;0.20;;;21.70;83.00;;;;;;5069536;28;20401;-86
2022/07/20 05:04:39;;;;;;;0.20;0.20;;;21.70;82.50;;;;;;5055615;28;20044;-89
2022/07/20 05:07:04;;;;;;;0.10;0.10;;;21.70;80.30;;;;;;5078612;28;20048;-86
2022/07/20 05:09:30;;;;;;;0.25;0.25;;;21.80;81.50;;;;;;5069973;28;20052;-87
2022/07/20 05:11:55;;;;;;;0.20;0.20;;;21.70;81.00;;;;;;5064008;28;20376;-88
2022/07/20 05:14:21;;;;;;;0.20;0.20;;;21.90;81.00;;;;;;5060482;28;20410;-85
2022/07/20 05:16:47;;;;;;;0.10;0.10;;;21.90;81.30;;;;;;5061546;28;20048;-87
2022/07/20 05:19:12;;;;;;;0.10;0.10;;;21.90;80.50;;;;;;5085767;28;20094;-86
2022/07/20 05:21:41;;;;;;;0.20;0.20;;;21.90;80.50;;;;;;5085171;28;20087;-85
2022/07/20 05:24:07;;;;;;;0.20;0.20;;;22.00;79.30;;;;;;5066277;28;20123;-84
2022/07/20 05:26:33;;;;;;;0.20;0.20;;;22.00;79.70;;;;;;5068151;28;20406;-85
2022/07/20 05:29:02;;;;;;;0.10;0.10;;;22.10;79.70;;;;;;5062963;28;20036;-88
2022/07/20 05:31:27;;;;;;;0.20;0.20;;;22.10;78.80;;;;;;5064113;28;20051;-89
2022/07/20 05:33:53;;;;;;;0.20;0.20;;;22.20;78.20;;;;;;5068155;28;20041;-86
2022/07/20 05:36:18;;;;;;;0.20;0.20;;;22.20;78.40;;;;;;5068452;28;20064;-88
2022/07/20 05:38:44;;;;;;;0.20;0.20;;;22.30;78.40;;;;;;5066316;28;20404;-86
2022/07/20 05:41:09;;;;;;;0.20;0.20;;;22.30;77.60;;;;;;5067319;28;20048;-89
2022/07/20 05:43:35;;;;;;;0.20;0.20;;;22.40;78.10;;;;;;5061568;28;22223;-86
2022/07/20 05:46:04;;;;;;;0.20;0.20;;;22.40;78.30;;;;;;5070386;28;20045;-89
2022/07/20 05:48:31;;;;;;;0.20;0.20;;;22.50;78.70;;;;;;5064676;28;20457;-86
2022/07/20 05:50:56;;;;;;;0.20;0.20;;;22.60;78.80;;;;;;5051299;28;20401;-90
2022/07/20 05:53:22;;;;;;;0.20;0.20;;;22.60;78.20;;;;;;5072088;28;20048;-88
2022/07/20 05:55:48;;;;;;;0.20;0.20;;;22.70;78.00;;;;;;5065497;28;20041;-85
2022/07/20 05:58:13;;;;;;;0.20;0.20;;;22.70;78.30;;;;;;5054727;28;20492;-81
2022/07/20 06:00:39;;;;;;;0.20;0.20;;;22.80;78.00;;;;;;5066675;28;20044;-81
2022/07/20 06:03:06;;;;;;;0.20;0.20;;;22.80;77.80;;;;;;5068909;28;20056;-81
2022/07/20 06:05:32;;;;;;;0.20;0.20;;;22.90;77.90;;;;;;5055285;28;20095;-81
2022/07/20 06:08:01;;;;;;;0.20;0.20;;;22.90;77.60;;;;;;5082710;28;20047;-80
2022/07/20 06:10:31;;;;;;;0.17;0.17;;;23.00;78.00;;;;;;5076757;28;20450;-83
2022/07/20 06:12:58;;;;;;;0.30;0.30;;;23.10;77.90;;;;;;5067061;28;20541;-81
2022/07/20 06:15:25;;;;;;;0.20;0.20;;;23.10;77.80;;;;;;5074646;28;20722;-81
2022/07/20 06:17:52;;;;;;;0.20;0.20;;;23.20;77.90;;;;;;5071533;28;20127;-81
2022/07/20 06:20:18;;;;;;;0.20;0.20;;;23.20;78.00;;;;;;5082881;28;20059;-81
2022/07/20 06:22:44;;;;;;;0.20;0.20;;;23.40;78.80;;;;;;5083787;28;20049;-81
2022/07/20 06:25:12;;;;;;;0.20;0.20;;;23.40;78.20;;;;;;5083419;28;20040;-81
2022/07/20 06:27:38;;;;;;;0.20;0.20;;;23.40;77.90;;;;;;5072147;28;20096;-81
2022/07/20 06:30:05;;;;;;;0.10;0.10;;;23.50;78.00;;;;;;5075288;28;20093;-82
2022/07/20 06:32:31;;;;;;;0.20;0.20;;;23.60;78.00;;;;;;5086703;28;20052;-82
2022/07/20 06:34:57;;;;;;;0.20;0.20;;;23.70;78.20;;;;;;5066262;28;20399;-83
2022/07/20 06:37:22;;;;;;;0.20;0.20;;;23.70;78.30;;;;;;5069749;28;20052;-82
2022/07/20 06:39:48;;;;;;;0.20;0.20;;;23.80;78.30;;;;;;5065155;28;20048;-81
2022/07/20 06:42:16;;;;;;;0.20;0.20;;;23.90;78.30;;;;;;5061781;28;20135;-80
2022/07/20 06:44:42;;;;;;;0.30;0.30;;;24.00;78.50;;;;;;5071866;28;20044;-81
2022/07/20 06:47:08;;;;;;;0.30;0.30;;;24.10;78.30;;;;;;5068688;28;20076;-80
2022/07/20 06:49:33;;;;;;;0.30;0.30;;;24.20;78.40;;;;;;5065907;28;20411;-80
2022/07/20 06:51:59;;;;;;;0.20;0.20;;;24.30;78.60;;;;;;5062620;28;20044;-79
2022/07/20 06:54:25;;;;;;;0.20;0.20;;;24.40;78.70;;;;;;5061121;28;20043;-80
2022/07/20 06:56:51;;;;;;;0.20;0.20;;;24.50;77.60;;;;;;5067574;28;20056;-80
2022/07/20 06:59:20;;;;;;;0.20;0.20;;;24.70;76.30;;;;;;5075697;28;20415;-79
2022/07/20 07:01:49;;;;;;;0.30;0.30;;;24.90;75.00;;;;;;5066687;28;20041;-81
2022/07/20 07:04:15;;;;;;;0.22;0.22;;;25.00;73.50;;;;;;5066232;28;20040;-80
2022/07/20 07:06:43;;;;;;;0.20;0.20;;;25.20;73.90;;;;;;5064253;28;20273;-82
2022/07/20 07:09:09;;;;;;;0.20;0.20;;;25.40;72.10;;;;;;5067541;28;20064;-81
2022/07/20 07:11:35;;;;;;;0.30;0.30;;;25.50;72.40;;;;;;5070730;28;20040;-80
2022/07/20 07:14:02;;;;;;;0.20;0.20;;;25.70;72.00;;;;;;5061268;28;20110;-81
2022/07/20 07:16:28;;;;;;;0.20;0.20;;;25.80;70.70;;;;;;5056388;28;20044;-81
2022/07/20 07:18:54;;;;;;;0.20;0.20;;;25.90;70.90;;;;;;5069672;28;20411;-81
2022/07/20 07:21:19;;;;;;;0.20;0.20;;;26.00;70.90;;;;;;5069252;28;20556;-81
2022/07/20 07:23:49;;;;;;;0.20;0.20;;;26.10;70.20;;;;;;5068451;28;20470;-80
2022/07/20 07:26:15;;;;;;;0.28;0.28;;;26.20;69.90;;;;;;5070380;28;20051;-80
2022/07/20 07:28:44;;;;;;;0.25;0.25;;;26.20;69.70;;;;;;5051106;28;20060;-81
2022/07/20 07:31:10;;;;;;;0.20;0.20;;;26.30;69.60;;;;;;5050169;28;20461;-80
2022/07/20 07:33:36;;;;;;;0.25;0.25;;;26.40;70.40;;;;;;5051195;28;20457;-80
2022/07/20 07:36:03;;;;;;;0.30;0.30;;;26.40;69.00;;;;;;5049409;28;20327;-80
2022/07/20 07:38:29;;;;;;;0.20;0.20;;;26.50;69.80;;;;;;5063013;28;20091;-80
2022/07/20 07:40:54;;;;;;;0.20;0.20;;;26.50;67.60;;;;;;5070051;28;20383;-80
2022/07/20 07:43:23;;;;;;;0.20;0.20;;;26.60;69.10;;;;;;5068696;28;20142;-78
2022/07/20 07:45:49;;;;;;;0.20;0.20;;;26.70;68.90;;;;;;5064807;28;20127;-79
2022/07/20 07:48:14;;;;;;;0.20;0.20;;;26.70;69.20;;;;;;5053876;28;20136;-80
2022/07/20 07:50:42;;;;;;;0.30;0.30;;;26.80;67.20;;;;;;5052579;28;20037;-79
2022/07/20 07:53:08;;;;;;;0.30;0.30;;;26.80;68.00;;;;;;5060406;28;20435;-80
2022/07/20 07:55:35;;;;;;;0.20;0.20;;;26.90;68.10;;;;;;5064704;28;20036;-78
2022/07/20 07:58:00;;;;;;;0.20;0.20;;;26.90;68.70;;;;;;5047747;28;20092;-79
2022/07/20 08:00:26;;;;;;;0.20;0.20;;;26.90;68.90;;;;;;5050242;28;20501;-79
2022/07/20 08:02:52;;;;;;;0.20;0.20;;;26.90;69.30;;;;;;5055270;28;20381;-80
2022/07/20 08:05:17;;;;;;;0.20;0.20;;;27.00;69.50;;;;;;5067825;28;20421;-80
2022/07/20 08:07:43;;;;;;;0.20;0.20;;;27.10;70.10;;;;;;5068182;28;20047;-81
2022/07/20 08:10:09;;;;;;;0.20;0.20;;;27.20;70.20;;;;;;5053179;28;20522;-82
2022/07/20 08:12:36;;;;;;;0.20;0.20;;;27.20;70.50;;;;;;5064262;28;20492;-79
2022/07/20 08:15:02;;;;;;;0.20;0.20;;;27.30;70.60;;;;;;5053349;28;20041;-80
2022/07/20 08:17:27;;;;;;;0.20;0.20;;;27.30;71.00;;;;;;5053778;28;20045;-79
2022/07/20 08:19:53;;;;;;;0.20;0.20;;;27.40;71.20;;;;;;5052584;28;20392;-80
2022/07/20 08:22:19;;;;;;;0.22;0.22;;;27.40;71.20;;;;;;5054242;28;20044;-79
2022/07/20 08:24:45;;;;;;;0.20;0.20;;;27.50;71.40;;;;;;5052296;28;20045;-80
2022/07/20 08:27:10;;;;;;;0.20;0.20;;;27.50;71.50;;;;;;5052007;28;20464;-80
2022/07/20 08:29:36;;;;;;;0.20;0.20;;;27.60;72.10;;;;;;5056039;28;20076;-80
2022/07/20 08:32:02;;;;;;;0.20;0.20;;;27.60;72.50;;;;;;5077934;28;20044;-79
2022/07/20 08:34:28;;;;;;;0.20;0.20;;;27.60;73.00;;;;;;5093097;28;20398;-80
2022/07/20 08:36:54;;;;;;;0.20;0.20;;;27.70;73.20;;;;;;5074231;28;20131;-80
2022/07/20 08:39:19;;;;;;;0.20;0.20;;;27.70;73.30;;;;;;5070205;28;20041;-78
2022/07/20 08:41:46;;;;;;;0.20;0.20;;;27.80;73.70;;;;;;5072408;28;20048;-79
2022/07/20 08:44:12;;;;;;;0.30;0.30;;;27.80;74.00;;;;;;5071460;28;20052;-79
2022/07/20 08:46:37;;;;;;;0.20;0.20;;;27.90;74.40;;;;;;5071633;28;20049;-80
2022/07/20 08:49:03;;;;;;;0.20;0.20;;;27.90;74.60;;;;;;5060989;28;20132;-80
2022/07/20 08:51:29;;;;;;;0.30;0.30;;;28.00;74.90;;;;;;5072491;28;20529;-79
2022/07/20 08:53:56;;;;;;;0.20;0.20;;;28.00;75.30;;;;;;5063836;28;20074;-79
2022/07/20 08:56:22;;;;;;;0.20;0.20;;;28.00;75.70;;;;;;5063964;28;20044;-79
2022/07/20 08:58:48;;;;;;;0.20;0.20;;;28.00;76.10;;;;;;5065627;28;20044;-80
2022/07/20 09:01:18;;;;;;;0.20;0.20;;;28.10;76.60;;;;;;5067950;28;20163;-81
2022/07/20 09:03:47;;;;;;;0.20;0.20;;;28.10;76.90;;;;;;5059389;28;20044;-81
2022/07/20 09:06:13;;;;;;;0.20;0.20;;;28.10;77.10;;;;;;5060211;28;20047;-79
2022/07/20 09:09:03;;;;;;;0.28;0.28;;;28.10;77.40;;;;;;5065298;28;20045;-82
2022/07/20 09:11:30;;;;;;;0.30;0.30;;;28.20;77.80;;;;;;5059792;28;20055;-80
2022/07/20 09:13:55;;;;;;;0.20;0.20;;;28.20;77.80;;;;;;5064782;28;20048;-80
2022/07/20 09:16:48;;;;;;;0.20;0.20;;;28.20;78.10;;;;;;5071677;28;20132;-80
2022/07/20 09:19:17;;;;;;;0.20;0.20;;;28.30;78.50;;;;;;5076047;28;20139;-79
2022/07/20 09:21:43;;;;;;;0.20;0.20;;;28.30;79.10;;;;;;5082942;28;20044;-80
2022/07/20 09:24:12;;;;;;;0.20;0.20;;;28.40;79.20;;;;;;5065556;28;20048;-81
2022/07/20 09:26:38;;;;;;;0.20;0.20;;;28.40;79.20;;;;;;5061616;28;20098;-80
2022/07/20 09:29:05;;;;;;;0.20;0.20;;;28.50;79.20;;;;;;5069199;28;20090;-80
2022/07/20 09:31:34;;;;;;;0.30;0.30;;;28.50;79.60;;;;;;5067852;28;20044;-79
2022/07/20 09:33:59;;;;;;;0.30;0.30;;;28.60;79.80;;;;;;5070125;28;20570;-80
2022/07/20 09:36:28;;;;;;;0.20;0.20;;;28.60;79.60;;;;;;5069222;28;20036;-80
2022/07/20 09:38:54;;;;;;;0.20;0.20;;;28.60;79.40;;;;;;5076958;28;20166;-79
2022/07/20 09:41:31;;;;;;;0.20;0.20;;;28.70;79.60;;;;;;5067309;28;20535;-79
2022/07/20 09:43:59;;;;;;;0.20;0.20;;;28.70;80.20;;;;;;5071465;28;20712;-79
2022/07/20 09:46:26;;;;;;;0.30;0.30;;;28.70;80.30;;;;;;5071181;28;20053;-80
2022/07/20 09:48:58;;;;;;;0.28;0.28;;;28.70;79.60;;;;;;5056320;28;20075;-78
2022/07/20 09:51:27;;;;;;;0.22;0.22;;;28.70;80.00;;;;;;5066490;28;20048;-80
2022/07/20 09:53:56;;;;;;;0.20;0.20;;;28.70;80.60;;;;;;5066593;28;20047;-79
2022/07/20 09:56:23;;;;;;;0.20;0.20;;;28.70;80.10;;;;;;5066375;28;20063;-79
2022/07/20 09:58:52;;;;;;;0.30;0.30;;;28.70;80.10;;;;;;5089216;28;20043;-80
2022/07/20 10:01:21;;;;;;;0.20;0.20;;;28.80;80.10;;;;;;5051550;28;20124;-79
2022/07/20 10:03:48;;;;;;;0.20;0.20;;;28.80;80.00;;;;;;5064066;28;20038;-78
2022/07/20 10:06:17;;;;;;;0.20;0.20;;;28.80;80.10;;;;;;5059943;28;20053;-79
2022/07/20 10:08:43;;;;;;;0.20;0.20;;;28.80;79.40;;;;;;5066971;28;20056;-79
2022/07/20 10:11:09;;;;;;;0.20;0.20;;;28.80;79.70;;;;;;5078982;28;20036;-80
2022/07/20 10:13:35;;;;;;;0.20;0.20;;;28.80;80.00;;;;;;5079502;28;20547;-79
2022/07/20 10:16:18;;;;;;;0.20;0.20;;;28.90;78.90;;;;;;5052412;28;20084;-78
2022/07/20 10:18:45;;;;;;;0.20;0.20;;;28.90;76.90;;;;;;5052146;28;20048;-79
2022/07/20 10:21:39;;;;;;;0.20;0.20;;;28.90;76.60;;;;;;5064257;28;20097;-80
2022/07/20 10:24:31;;;;;;;0.20;0.20;;;28.90;76.50;;;;;;5049951;28;20514;-79
2022/07/20 10:27:09;;;;;;;0.20;0.20;;;28.90;77.10;;;;;;5048988;28;20128;-79
2022/07/20 10:29:38;;;;;;;0.20;0.20;;;28.90;76.90;;;;;;5065863;28;20036;-79
2022/07/20 10:32:10;;;;;;;0.20;0.20;;;28.90;74.80;;;;;;5063586;28;20051;-81
2022/07/20 10:34:38;;;;;;;0.20;0.20;;;28.90;73.30;;;;;;5071045;28;20124;-80
2022/07/20 10:37:39;;;;;;;0.20;0.20;;;28.90;73.90;;;;;;5059383;28;20048;-81
2022/07/20 10:40:15;;;;;;;0.20;0.20;;;28.90;74.70;;;;;;5049549;28;20476;-79
2022/07/20 10:42:43;;;;;;;0.20;0.20;;;28.90;74.00;;;;;;5053512;28;20415;-80
2022/07/20 10:45:20;;;;;;;0.20;0.20;;;28.90;73.90;;;;;;5060223;28;20052;-80
2022/07/20 10:48:11;;;;;;;0.20;0.20;;;28.90;73.30;;;;;;5059477;28;20232;-79
2022/07/20 10:50:37;;;;;;;;;;;28.90;74.10;;;;;;5052114;28;20052;-80
2022/07/20 10:53:18;;;;;;;0.25;0.25;;;28.90;74.40;;;;;;5078737;28;19958;-79
2022/07/20 10:55:55;;;;;;;0.20;0.20;;;29.00;74.80;;;;;;5059699;28;20428;-79
2022/07/20 10:58:25;;;;;;;0.30;0.30;;;29.00;74.80;;;;;;5058843;28;20037;-79
2022/07/20 11:00:57;;;;;;;0.30;0.30;;;29.00;75.30;;;;;;5066335;28;20043;-80
2022/07/20 11:03:29;;;;;;;0.20;0.20;;;29.10;76.00;;;;;;5061154;28;20048;-79
2022/07/20 11:06:06;;;;;;;0.20;0.20;;;29.10;74.30;;;;;;5065917;28;20173;-79
2022/07/20 11:08:36;;;;;;;0.20;0.20;;;29.20;73.80;;;;;;5054252;28;20049;-80
2022/07/20 11:11:02;;;;;;;0.20;0.20;;;29.20;73.60;;;;;;5057612;28;20037;-79
2022/07/20 11:13:28;;;;;;;0.20;0.20;;;29.30;73.30;;;;;;5054592;28;20037;-79
2022/07/20 11:16:00;;;;;;;0.20;0.20;;;29.30;73.50;;;;;;5050724;28;20131;-80
2022/07/20 11:18:29;;;;;;;0.20;0.20;;;29.30;73.90;;;;;;5058963;28;20832;-79
2022/07/20 11:20:56;;;;;;;0.20;0.20;;;29.40;73.80;;;;;;5063217;28;20116;-80
2022/07/20 11:23:25;;;;;;;0.20;0.20;;;29.40;73.70;;;;;;5063924;28;20048;-79
2022/07/20 11:25:57;;;;;;;0.20;0.20;;;29.50;73.70;;;;;;5061053;28;20466;-80
2022/07/20 11:28:27;;;;;;;0.20;0.20;;;29.50;73.20;;;;;;5053025;28;20547;-79
2022/07/20 11:30:53;;;;;;;0.20;0.20;;;29.60;73.40;;;;;;5055627;28;20355;-80
2022/07/20 11:33:23;;;;;;;0.20;0.20;;;29.70;73.60;;;;;;5061261;28;20074;-79
2022/07/20 11:35:49;;;;;;;0.20;0.20;;;29.70;73.30;;;;;;5061001;28;20396;-79
2022/07/20 11:38:16;;;;;;;0.20;0.20;;;29.80;73.50;;;;;;5068215;28;20045;-80
2022/07/20 11:40:41;;;;;;;0.20;0.20;;;29.80;72.40;;;;;;5070328;28;20052;-80
2022/07/20 11:43:09;;;;;;;0.20;0.20;;;29.90;72.70;;;;;;5069152;28;20040;-80
2022/07/20 11:45:36;;;;;;;0.20;0.20;;;29.90;70.80;;;;;;5070134;28;20426;-80
2022/07/20 11:48:18;;;;;;;0.20;0.20;;;30.00;70.80;;;;;;5057106;28;20520;-80
2022/07/20 11:50:44;;;;;;;0.20;0.20;;;29.90;70.30;;;;;;5065154;28;20048;-80
2022/07/20 11:53:33;;;;;;;0.20;0.20;;;29.90;71.20;;;;;;5053338;28;20051;-80
2022/07/20 11:56:02;;;;;;;0.20;0.20;;;30.00;71.00;;;;;;5052677;28;20065;-79
2022/07/20 11:58:36;;;;;;;0.20;0.20;;;30.10;70.20;;;;;;5084103;28;20101;-78
2022/07/20 12:01:05;;;;;;;0.20;0.20;;;30.10;70.10;;;;;;5062704;28;20044;-79
2022/07/20 12:03:34;;;;;;;0.20;0.20;;;30.10;70.20;;;;;;5065146;28;20064;-79
2022/07/20 12:06:03;;;;;;;0.20;0.20;;;30.20;69.40;;;;;;5063748;28;20047;-79
2022/07/20 12:08:29;;;;;;;0.20;0.20;;;30.20;69.50;;;;;;5072397;28;20051;-80
2022/07/20 12:10:55;;;;;;;0.20;0.20;;;30.20;69.50;;;;;;5071561;28;20044;-80
2022/07/20 12:13:21;;;;;;;0.20;0.20;;;30.20;70.00;;;;;;5072184;28;20036;-79
2022/07/20 12:15:59;;;;;;;0.20;0.20;;;30.20;70.60;;;;;;5073741;28;20044;-79
2022/07/20 12:18:52;;;;;;;0.20;0.20;;;30.30;68.80;;;;;;5072772;28;20052;-80
2022/07/20 12:21:27;;;;;;;0.20;0.20;;;30.40;69.50;;;;;;5062029;28;20053;-80
2022/07/20 12:23:54;;;;;;;0.20;0.20;;;30.30;68.80;;;;;;5067890;28;20045;-79
2022/07/20 12:26:31;;;;;;;0.20;0.20;;;30.40;69.60;;;;;;5053069;28;20048;-79
2022/07/20 12:29:20;;;;;;;0.30;0.30;;;30.40;69.60;;;;;;5052427;28;20041;-80
2022/07/20 12:32:06;;;;;;;0.20;0.20;;;30.50;68.90;;;;;;5066352;28;20103;-80
2022/07/20 12:34:51;;;;;;;0.20;0.20;;;30.60;68.20;;;;;;5068459;28;20080;-79
2022/07/20 12:37:18;;;;;;;0.20;0.20;;;30.70;68.50;;;;;;5070843;28;20040;-80
2022/07/20 12:39:49;;;;;;;0.20;0.20;;;30.80;67.50;;;;;;5071098;28;20116;-80
2022/07/20 12:42:24;;;;;;;0.20;0.20;;;30.80;67.30;;;;;;5072168;28;20040;-80
2022/07/20 12:45:01;;;;;;;0.30;0.30;;;30.90;66.40;;;;;;5072820;28;20510;-79
2022/07/20 12:47:30;;;;;;;0.20;0.20;;;30.90;66.00;;;;;;5068818;28;20052;-79
2022/07/20 12:49:58;;;;;;;0.20;0.20;;;31.00;66.50;;;;;;5052510;28;20041;-79
2022/07/20 12:52:24;;;;;;;0.20;0.20;;;31.00;66.10;;;;;;5053052;28;20527;-80
2022/07/20 12:54:50;;;;;;;0.30;0.30;;;31.10;66.50;;;;;;5050794;28;20492;-80